Time;durP1;ratioP1;P1;durP2;ratioP2;P2;SDS_P1;SDS_P2;PMS_P1;PMS_P2;Temp;Humidity;BMP_temperature;BMP_pressure;BME280_temperature;BME280_humidity;BME280_pressure;Samples;Min_cycle;Max_cycle;Signal;HPM_P1;HPM_P2
2023/05/18 00:01:16;;;;;;;1.42;0.70;;;;;;;11.45;100.00;63184.31;5027828;28;20215;-78
2023/05/18 00:03:43;;;;;;;0.85;0.85;;;;;;;11.44;100.00;63182.75;5027243;28;20225;-78
2023/05/18 00:06:10;;;;;;;1.60;0.90;;;;;;;11.44;100.00;63177.66;5025528;28;20257;-78
2023/05/18 00:08:38;;;;;;;1.05;0.90;;;;;;;11.31;100.00;63169.28;5026702;28;20252;-77
2023/05/18 00:11:06;;;;;;;1.35;0.70;;;;;;;11.19;100.00;63152.28;5025595;28;20194;-78
2023/05/18 00:13:33;;;;;;;0.70;0.70;;;;;;;11.35;100.00;63168.34;5026499;28;20382;-79
2023/05/18 00:16:01;;;;;;;0.30;0.30;;;;;;;11.31;100.00;63164.72;5028165;28;20234;-78
2023/05/18 00:18:33;;;;;;;0.40;0.40;;;;;;;11.35;100.00;63171.41;5027574;28;20254;-79
2023/05/18 00:21:00;;;;;;;0.63;0.40;;;;;;;11.34;100.00;63169.84;5028293;28;20393;-79
2023/05/18 00:23:29;;;;;;;0.57;0.57;;;;;;;11.30;100.00;63166.22;5025927;28;20265;-78
2023/05/18 00:25:58;;;;;;;0.85;0.50;;;;;;;11.28;100.00;63158.53;5026966;28;20272;-77
2023/05/18 00:28:25;;;;;;;1.85;0.40;;;;;;;11.25;100.00;63158.50;5026392;28;20401;-77
2023/05/18 00:30:55;;;;;;;0.25;0.25;;;;;;;11.23;100.00;63155.91;5026056;28;20261;-77
2023/05/18 00:33:22;;;;;;;0.40;0.40;;;;;;;11.23;100.00;63158.97;5026116;28;20225;-78
2023/05/18 00:35:50;;;;;;;0.75;0.75;;;;;;;11.18;100.00;63151.25;5025964;28;20302;-77
2023/05/18 00:38:17;;;;;;;0.40;0.40;;;;;;;11.25;100.00;63161.03;5025125;28;20264;-78
2023/05/18 00:40:46;;;;;;;0.40;0.40;;;;;;;11.30;100.00;63163.66;5025719;28;20207;-79
2023/05/18 00:43:13;;;;;;;0.35;0.35;;;;;;;11.26;100.00;63159.00;5025482;28;20469;-78
2023/05/18 00:45:40;;;;;;;0.45;0.45;;;;;;;11.21;100.00;63153.84;5026011;28;20195;-77
2023/05/18 00:48:07;;;;;;;0.30;0.30;;;;;;;11.18;100.00;63153.28;5028532;28;20222;-76
2023/05/18 00:50:35;;;;;;;0.20;0.20;;;;;;;11.19;100.00;63154.84;5024759;28;20237;-79
2023/05/18 00:53:03;;;;;;;0.20;0.20;;;;;;;11.20;100.00;63152.81;5025462;28;20244;-77
2023/05/18 00:55:30;;;;;;;0.20;0.20;;;;;;;11.25;100.00;63160.53;5026408;28;20237;-79
2023/05/18 00:58:01;;;;;;;0.77;0.30;;;;;;;11.24;100.00;63154.38;5025091;28;20222;-77
2023/05/18 01:00:28;;;;;;;0.57;0.57;;;;;;;11.25;100.00;63160.53;5025208;28;20381;-79
2023/05/18 01:02:55;;;;;;;0.20;0.20;;;;;;;11.30;100.00;63161.13;5025794;28;20214;-78
2023/05/18 01:05:24;;;;;;;0.30;0.30;;;;;;;11.33;100.00;63166.78;5027111;28;20263;-77
2023/05/18 01:07:51;;;;;;;0.38;0.38;;;;;;;11.34;100.00;63170.38;5025540;28;20282;-77
2023/05/18 01:10:20;;;;;;;0.20;0.20;;;;;;;11.41;100.00;63169.44;5025666;28;20205;-79
2023/05/18 01:12:50;;;;;;;0.85;0.57;;;;;;;11.48;100.00;63184.34;5025146;28;20442;-76
2023/05/18 01:15:20;;;;;;;0.22;0.22;;;;;;;11.56;100.00;63193.16;5025627;28;20186;-77
2023/05/18 01:18:03;;;;;;;0.20;0.20;;;;;;;11.63;100.00;63199.91;5026538;28;20457;-78
2023/05/18 01:20:39;;;;;;;0.40;0.40;;;;;;;11.67;100.00;63201.50;5024803;28;20471;-78
2023/05/18 01:23:41;;;;;;;0.85;0.45;;;;;;;11.72;100.00;63206.69;5025633;28;20248;-78
2023/05/18 01:26:15;;;;;;;0.60;0.40;;;;;;;11.71;100.00;63208.19;5028304;28;20261;-77
2023/05/18 01:28:45;;;;;;;0.20;0.20;;;;;;;11.75;100.00;63211.81;5029071;28;20273;-77
2023/05/18 01:31:14;;;;;;;0.82;0.63;;;;;;;11.81;100.00;63215.47;5031235;28;20198;-77
2023/05/18 01:33:42;;;;;;;0.30;0.30;;;;;;;11.85;100.00;63222.72;5049083;28;20221;-77
2023/05/18 01:36:10;;;;;;;1.00;0.63;;;;;;;11.87;100.00;63219.16;5048173;28;20245;-78
2023/05/18 01:38:38;;;;;;;0.40;0.40;;;;;;;11.82;100.00;63214.47;5047980;28;20205;-77
2023/05/18 01:41:12;;;;;;;0.52;0.52;;;;;;;11.92;100.00;63227.41;5047422;28;20198;-80
2023/05/18 01:43:47;;;;;;;1.65;0.60;;;;;;;11.88;100.00;63223.25;5047240;28;20209;-78
2023/05/18 01:46:22;;;;;;;1.85;0.50;;;;;;;11.85;100.00;63222.19;5049129;28;20420;-78
2023/05/18 01:48:54;;;;;;;0.68;0.68;;;;;;;11.93;100.00;63235.56;5048139;28;20229;-79
2023/05/18 01:51:22;;;;;;;0.68;0.68;;;;;;;11.88;100.00;63228.38;5047940;28;20221;-77
2023/05/18 01:53:57;;;;;;;0.63;0.63;;;;;;;11.85;100.00;63222.72;5047671;28;20198;-79
2023/05/18 01:56:25;;;;;;;0.43;0.43;;;;;;;11.53;100.00;63189.53;5048468;28;20361;-77
2023/05/18 01:58:53;;;;;;;0.43;0.43;;;;;;;11.57;100.00;63191.13;5049937;28;20435;-77
2023/05/18 02:01:22;;;;;;;1.48;0.80;;;;;;;11.62;100.00;63196.31;5047391;28;20316;-77
2023/05/18 02:03:50;;;;;;;0.60;0.60;;;;;;;11.67;100.00;63204.03;5046683;28;20240;-78
2023/05/18 02:06:18;;;;;;;0.70;0.70;;;;;;;11.70;100.00;63204.59;5050390;28;20210;-77
2023/05/18 02:08:45;;;;;;;0.77;0.77;;;;;;;11.66;100.00;63203.03;5047852;28;20202;-78
2023/05/18 02:11:13;;;;;;;1.02;0.60;;;;;;;11.62;100.00;63196.81;5050279;28;20525;-77
2023/05/18 02:13:41;;;;;;;0.40;0.40;;;;;;;11.47;100.00;63183.31;5049433;28;20213;-77
2023/05/18 02:16:10;;;;;;;1.02;0.50;;;;;;;11.44;100.00;63178.16;5047956;28;20229;-79
2023/05/18 02:18:37;;;;;;;0.82;0.82;;;;;;;11.54;100.00;63193.13;5047905;28;20208;-77
2023/05/18 02:21:05;;;;;;;1.13;0.75;;;;;;;11.69;100.00;63205.59;5045018;28;20221;-77
2023/05/18 02:23:32;;;;;;;1.02;0.55;;;;;;;11.79;100.00;63213.94;5040016;28;20213;-79
2023/05/18 02:25:59;;;;;;;0.75;0.75;;;;;;;11.80;100.00;63214.47;5029566;28;20210;-78
2023/05/18 02:28:27;;;;;;;0.68;0.68;;;;;;;11.75;100.00;63214.38;5027533;28;20374;-79
2023/05/18 02:30:54;;;;;;;1.13;0.52;;;;;;;11.75;100.00;63209.28;5029151;28;20273;-79
2023/05/18 02:33:24;;;;;;;0.65;0.65;;;;;;;11.83;100.00;63220.09;5027708;28;20219;-78
2023/05/18 02:35:53;;;;;;;0.90;0.90;;;;;;;11.80;100.00;63214.97;5027032;28;20254;-79
2023/05/18 02:38:20;;;;;;;1.23;0.80;;;;;;;11.84;100.00;63218.59;5027549;28;20409;-78
2023/05/18 02:40:48;;;;;;;1.35;1.35;;;;;;;11.74;100.00;63208.22;5026667;28;20206;-78
2023/05/18 02:43:15;;;;;;;0.80;0.80;;;;;;;11.79;100.00;63213.41;5026973;28;20223;-78
2023/05/18 02:45:42;;;;;;;0.95;0.95;;;;;;;11.89;100.00;63224.28;5027433;28;20400;-77
2023/05/18 02:48:09;;;;;;;1.05;1.00;;;;;;;11.95;100.00;63235.63;5028854;28;20215;-76
2023/05/18 02:50:37;;;;;;;0.93;0.90;;;;;;;12.01;100.00;63238.78;5026961;28;20382;-77
2023/05/18 02:53:05;;;;;;;0.85;0.85;;;;;;;12.01;100.00;63239.28;5026874;28;20433;-77
2023/05/18 02:55:32;;;;;;;0.70;0.60;;;;;;;12.03;100.00;63236.25;5025881;28;20261;-77
2023/05/18 02:58:01;;;;;;;0.88;0.73;;;;;;;12.03;100.00;63240.84;5025966;28;20302;-77
2023/05/18 03:00:29;;;;;;;3.20;0.85;;;;;;;12.02;100.00;63234.69;5025886;28;20283;-76
2023/05/18 03:02:59;;;;;;;0.70;0.70;;;;;;;12.08;100.00;63246.03;5027284;28;20226;-77
2023/05/18 03:05:26;;;;;;;1.73;0.65;;;;;;;12.12;100.00;63245.56;5027876;28;20270;-77
2023/05/18 03:07:54;;;;;;;0.60;0.60;;;;;;;12.17;100.00;63255.34;5025956;28;20222;-79
2023/05/18 03:10:21;;;;;;;1.17;0.60;;;;;;;12.07;100.00;63245.50;5025922;28;20201;-76
2023/05/18 03:12:49;;;;;;;0.75;0.60;;;;;;;12.11;100.00;63244.03;5026315;28;20222;-77
2023/05/18 03:15:16;;;;;;;0.75;0.75;;;;;;;12.14;100.00;63250.22;5027295;28;20442;-77
2023/05/18 03:17:43;;;;;;;2.15;0.68;;;;;;;12.13;100.00;63251.72;5025936;28;20452;-76
2023/05/18 03:20:13;;;;;;;0.88;0.88;;;;;;;12.05;100.00;63248.00;5028442;28;20270;-77
2023/05/18 03:22:41;;;;;;;1.05;1.05;;;;;;;11.89;100.00;63223.78;5025290;28;20419;-78
2023/05/18 03:25:09;;;;;;;1.40;1.40;;;;;;;11.86;100.00;63223.72;5025933;28;20218;-78
2023/05/18 03:27:36;;;;;;;1.80;1.70;;;;;;;11.70;100.00;63206.66;5026235;28;20218;-77
2023/05/18 03:30:05;;;;;;;1.80;1.70;;;;;;;11.74;100.00;63205.69;5025508;28;20262;-77
2023/05/18 03:32:32;;;;;;;3.25;2.15;;;;;;;11.80;100.00;63217.00;5007802;28;20467;-77
2023/05/18 03:35:01;;;;;;;3.30;3.00;;;;;;;11.86;100.00;63225.75;5026003;28;20194;-77
2023/05/18 03:37:28;;;;;;;2.20;2.10;;;;;;;11.69;100.00;63203.56;5024988;28;20249;-78
2023/05/18 03:39:59;;;;;;;1.90;1.80;;;;;;;11.78;100.00;63215.44;5025368;28;20207;-76
2023/05/18 03:42:27;;;;;;;2.90;1.90;;;;;;;11.82;100.00;63219.09;5026268;28;20249;-75
2023/05/18 03:44:55;;;;;;;1.80;1.70;;;;;;;11.87;100.00;63224.78;5024888;28;20202;-78
2023/05/18 03:47:22;;;;;;;1.73;1.65;;;;;;;11.99;100.00;63236.69;5025639;28;20246;-77
2023/05/18 03:49:49;;;;;;;1.65;1.60;;;;;;;12.00;100.00;63235.16;5025162;28;20396;-76
2023/05/18 03:52:21;;;;;;;1.60;1.60;;;;;;;12.06;100.00;63246.50;5024627;28;20469;-78
2023/05/18 03:54:49;;;;;;;1.10;1.10;;;;;;;12.08;100.00;63246.53;5026870;28;20195;-77
2023/05/18 03:57:16;;;;;;;0.80;0.80;;;;;;;12.01;100.00;63239.28;5024358;28;20230;-77
2023/05/18 03:59:45;;;;;;;0.75;0.75;;;;;;;12.01;100.00;63239.28;5024885;28;20278;-76
2023/05/18 04:02:15;;;;;;;1.77;0.90;;;;;;;12.10;100.00;63251.16;5025670;28;20217;-78
2023/05/18 04:04:44;;;;;;;0.98;0.98;;;;;;;12.13;100.00;63249.16;5024742;28;20398;-77
2023/05/18 04:07:12;;;;;;;0.80;0.80;;;;;;;12.13;100.00;63251.72;5025817;28;20228;-78
2023/05/18 04:09:42;;;;;;;1.45;0.90;;;;;;;12.17;100.00;63255.88;5024391;28;20294;-78
2023/05/18 04:12:09;;;;;;;0.65;0.65;;;;;;;12.04;100.00;63244.94;5024239;28;20223;-77
2023/05/18 04:14:36;;;;;;;1.17;1.17;;;;;;;12.04;100.00;63239.31;5025653;28;20221;-76
2023/05/18 04:17:06;;;;;;;1.17;1.17;;;;;;;12.13;100.00;63249.16;5025393;28;20450;-77
2023/05/18 04:19:34;;;;;;;2.60;1.92;;;;;;;12.03;100.00;63238.78;5025204;28;20250;-79
2023/05/18 04:22:03;;;;;;;3.42;3.00;;;;;;;12.06;100.00;63247.00;5024907;28;20224;-77
2023/05/18 04:24:31;;;;;;;3.22;3.03;;;;;;;12.06;100.00;63243.94;5024559;28;20225;-77
2023/05/18 04:26:59;;;;;;;3.38;3.10;;;;;;;12.01;100.00;63236.72;5024720;28;20226;-77
2023/05/18 04:29:27;;;;;;;3.50;3.30;;;;;;;12.01;100.00;63239.28;5024414;28;20199;-77
2023/05/18 04:31:59;;;;;;;4.00;3.70;;;;;;;12.00;100.00;63243.34;5025704;28;20289;-75
2023/05/18 04:34:29;;;;;;;3.90;3.70;;;;;;;12.06;100.00;63244.47;5025289;28;20420;-77
2023/05/18 04:36:57;;;;;;;4.30;4.00;;;;;;;12.05;100.00;63240.88;5024615;28;20237;-78
2023/05/18 04:39:26;;;;;;;4.32;4.03;;;;;;;12.07;100.00;63237.31;5024076;28;20191;-76
2023/05/18 04:41:57;;;;;;;4.78;4.43;;;;;;;12.11;100.00;63249.13;5025947;28;20286;-76
2023/05/18 04:44:24;;;;;;;5.03;4.60;;;;;;;12.17;100.00;63250.22;5024821;28;20229;-76
2023/05/18 04:46:52;;;;;;;5.00;4.53;;;;;;;12.29;100.00;63265.22;5026226;28;20447;-76
2023/05/18 04:49:21;;;;;;;4.70;4.40;;;;;;;12.26;100.00;63265.19;5024221;28;20203;-76
2023/05/18 04:51:54;;;;;;;4.45;4.13;;;;;;;12.26;100.00;63264.69;5025766;28;20218;-76
2023/05/18 04:54:22;;;;;;;5.25;4.43;;;;;;;12.15;100.00;63251.22;5025790;28;20531;-77
2023/05/18 04:56:50;;;;;;;4.43;4.13;;;;;;;12.17;100.00;63255.34;5025816;28;20230;-76
2023/05/18 04:59:17;;;;;;;4.20;3.95;;;;;;;12.21;100.00;63256.94;5026515;28;20384;-76
2023/05/18 05:01:45;;;;;;;4.43;4.13;;;;;;;12.22;100.00;63260.53;5028770;28;20222;-77
2023/05/18 05:04:12;;;;;;;3.95;3.65;;;;;;;12.27;100.00;63263.16;5028530;28;20404;-77
2023/05/18 05:06:39;;;;;;;3.58;3.38;;;;;;;12.34;100.00;63270.41;5029949;28;20258;-77
2023/05/18 05:09:08;;;;;;;3.42;3.22;;;;;;;12.43;100.00;63282.28;5030179;28;20205;-76
2023/05/18 05:11:35;;;;;;;3.58;3.38;;;;;;;12.35;100.00;63274.53;5028300;28;20218;-77
2023/05/18 05:14:03;;;;;;;3.10;2.90;;;;;;;12.44;100.00;63281.28;5028497;28;20410;-77
2023/05/18 05:16:30;;;;;;;3.20;3.00;;;;;;;12.42;100.00;63278.72;5028129;28;20229;-76
2023/05/18 05:18:58;;;;;;;2.70;2.60;;;;;;;12.53;100.00;63295.75;5028956;28;20226;-77
2023/05/18 05:21:25;;;;;;;2.70;2.60;;;;;;;12.57;100.00;63292.22;5029444;28;20229;-77
2023/05/18 05:23:53;;;;;;;2.67;2.58;;;;;;;12.59;100.00;63296.88;5029843;28;20257;-76
2023/05/18 05:26:21;;;;;;;2.42;2.33;;;;;;;12.68;100.00;63308.22;5029234;28;20226;-77
2023/05/18 05:28:49;;;;;;;6.88;2.58;;;;;;;12.65;100.00;63308.19;5027815;28;20198;-77
2023/05/18 05:31:16;;;;;;;2.22;2.05;;;;;;;12.68;100.00;63300.56;5028160;28;20195;-75
2023/05/18 05:33:44;;;;;;;2.00;1.90;;;;;;;12.65;100.00;63302.53;5027983;28;20286;-75
2023/05/18 05:36:11;;;;;;;1.73;1.63;;;;;;;12.57;100.00;63302.44;5029195;28;20203;-75
2023/05/18 05:38:37;;;;;;;1.30;1.30;;;;;;;12.59;100.00;63296.88;5029094;28;20234;-76
2023/05/18 05:41:05;;;;;;;1.60;1.50;;;;;;;12.46;100.00;63278.25;5028179;28;20258;-76
2023/05/18 05:43:33;;;;;;;1.60;1.60;;;;;;;12.50;100.00;63284.97;5027840;28;20199;-76
2023/05/18 05:46:00;;;;;;;1.00;1.00;;;;;;;12.44;100.00;63288.44;5027207;28;20202;-76
2023/05/18 05:48:28;;;;;;;1.00;1.00;;;;;;;12.36;100.00;63278.13;5045289;28;20203;-77
2023/05/18 05:50:55;;;;;;;0.82;0.82;;;;;;;12.38;100.00;63279.66;5048069;28;20218;-77
2023/05/18 05:53:22;;;;;;;6.75;1.10;;;;;;;12.40;100.00;63282.28;5048553;28;20426;-76
2023/05/18 05:55:49;;;;;;;0.93;0.93;;;;;;;12.43;100.00;63282.28;5047636;28;20858;-77
2023/05/18 05:58:16;;;;;;;1.02;1.02;;;;;;;12.44;100.00;63288.97;5047053;28;20569;-77
2023/05/18 06:00:46;;;;;;;1.20;1.15;;;;;;;12.46;100.00;63280.81;5047378;28;20285;-78
2023/05/18 06:03:13;;;;;;;1.42;1.42;;;;;;;12.44;100.00;63280.78;5047395;28;20218;-77
2023/05/18 06:05:40;;;;;;;1.00;1.00;;;;;;;12.52;100.00;63292.16;5049909;28;20200;-76
2023/05/18 06:08:08;;;;;;;1.00;1.00;;;;;;;12.56;100.00;63293.22;5047077;28;20249;-77
2023/05/18 06:10:34;;;;;;;1.15;1.05;;;;;;;12.47;100.00;63289.00;5046510;28;20210;-77
2023/05/18 06:13:02;;;;;;;1.58;1.23;;;;;;;12.43;100.00;63274.63;5047270;28;20217;-78
2023/05/18 06:15:30;;;;;;;0.82;0.82;;;;;;;12.42;100.00;63281.78;5047350;28;20265;-78
2023/05/18 06:18:00;;;;;;;1.02;1.02;;;;;;;12.40;100.00;63276.63;5047953;28;20237;-78
2023/05/18 06:20:28;;;;;;;1.50;1.40;;;;;;;12.43;100.00;63282.81;5051082;28;20257;-77
2023/05/18 06:22:56;;;;;;;1.30;1.30;;;;;;;12.42;100.00;63279.25;5048645;28;20218;-78
2023/05/18 06:25:23;;;;;;;1.85;1.73;;;;;;;12.41;100.00;63278.19;5048891;28;20433;-77
2023/05/18 06:27:51;;;;;;;3.35;1.50;;;;;;;12.27;100.00;63265.72;5048291;28;20218;-77
2023/05/18 06:30:19;;;;;;;1.70;1.60;;;;;;;12.37;100.00;63274.03;5048629;28;20226;-79
2023/05/18 06:32:46;;;;;;;1.80;1.70;;;;;;;12.43;100.00;63282.81;5051557;28;20214;-77
2023/05/18 06:35:15;;;;;;;3.85;2.28;;;;;;;12.33;100.00;63269.91;5048577;28;20201;-76
2023/05/18 06:37:42;;;;;;;2.03;1.90;;;;;;;12.40;100.00;63276.63;5047379;28;20241;-77
2023/05/18 06:40:10;;;;;;;2.00;1.90;;;;;;;12.46;100.00;63283.38;5046062;28;20269;-77
2023/05/18 06:42:37;;;;;;;3.83;2.20;;;;;;;12.52;100.00;63294.72;5045874;28;20251;-76
2023/05/18 06:45:05;;;;;;;2.40;2.13;;;;;;;12.36;100.00;63275.56;5047145;28;20205;-77
2023/05/18 06:47:32;;;;;;;2.53;2.42;;;;;;;12.33;100.00;63269.38;5047179;28;20241;-77
2023/05/18 06:49:59;;;;;;;2.80;2.65;;;;;;;12.31;100.00;63270.38;5047042;28;20204;-77
2023/05/18 06:52:30;;;;;;;2.42;2.33;;;;;;;12.31;100.00;63270.38;5046466;28;20253;-75
2023/05/18 06:55:00;;;;;;;3.03;2.75;;;;;;;12.41;100.00;63282.78;5045718;28;20206;-78
2023/05/18 06:57:27;;;;;;;3.05;2.28;;;;;;;12.51;100.00;63288.56;5046372;28;20400;-76
2023/05/18 06:59:54;;;;;;;4.22;3.40;;;;;;;12.61;100.00;63301.47;5046815;28;20377;-77
2023/05/18 07:02:21;;;;;;;3.10;3.00;;;;;;;12.67;100.00;63304.63;5047401;28;20387;-76
2023/05/18 07:04:49;;;;;;;2.95;2.85;;;;;;;12.57;100.00;63294.78;5047231;28;20205;-76
2023/05/18 07:07:16;;;;;;;3.22;3.03;;;;;;;12.58;100.00;63295.31;5047337;28;20296;-77
2023/05/18 07:09:48;;;;;;;3.70;3.40;;;;;;;12.56;100.00;63290.69;5047484;28;20220;-77
2023/05/18 07:12:15;;;;;;;3.65;3.45;;;;;;;12.52;100.00;63291.63;5045868;28;20242;-78
2023/05/18 07:14:43;;;;;;;3.80;3.50;;;;;;;12.38;100.00;63274.56;5046985;28;20217;-78
2023/05/18 07:17:10;;;;;;;5.97;3.75;;;;;;;12.50;100.00;63282.41;5047019;28;20534;-77
2023/05/18 07:19:37;;;;;;;4.07;3.60;;;;;;;12.59;100.00;63293.78;5047677;28;20198;-76
2023/05/18 07:22:06;;;;;;;3.88;3.60;;;;;;;12.68;100.00;63308.72;5046525;28;20221;-79
2023/05/18 07:24:33;;;;;;;4.68;4.00;;;;;;;12.64;100.00;63301.53;5046642;28;20515;-79
2023/05/18 07:27:02;;;;;;;5.35;4.88;;;;;;;12.62;100.00;63302.53;5047493;28;20218;-78
2023/05/18 07:29:30;;;;;;;5.25;4.75;;;;;;;12.53;100.00;63290.09;5046992;28;20236;-79
2023/05/18 07:31:57;;;;;;;5.95;5.45;;;;;;;12.49;100.00;63283.41;5048066;28;20224;-78
2023/05/18 07:34:25;;;;;;;5.88;5.38;;;;;;;12.48;100.00;63284.94;5047526;28;20198;-78
2023/05/18 07:36:53;;;;;;;10.80;5.55;;;;;;;12.44;100.00;63278.75;5047883;28;20312;-78
2023/05/18 07:39:27;;;;;;;7.75;5.47;;;;;;;12.34;100.00;63275.50;5046813;28;20233;-78
2023/05/18 07:41:54;;;;;;;7.30;5.78;;;;;;;12.30;100.00;63266.78;5045346;28;20218;-78
2023/05/18 07:44:23;;;;;;;6.90;6.30;;;;;;;12.35;100.00;63274.53;5045933;28;20190;-78
2023/05/18 07:46:51;;;;;;;7.53;6.20;;;;;;;12.28;100.00;63272.38;5047348;28;20221;-77
2023/05/18 07:49:18;;;;;;;10.32;9.25;;;;;;;11.96;100.00;63229.00;5046169;28;20201;-77
2023/05/18 07:51:45;;;;;;;10.88;9.68;;;;;;;11.92;100.00;63229.97;5045838;28;20283;-77
2023/05/18 07:54:12;;;;;;;15.68;10.38;;;;;;;11.81;100.00;63218.56;5046633;28;20505;-76
2023/05/18 07:56:39;;;;;;;11.93;10.35;;;;;;;11.62;100.00;63196.31;5045246;28;20221;-77
2023/05/18 07:59:07;;;;;;;12.38;10.50;;;;;;;11.47;100.00;63183.31;5046517;28;20241;-76
2023/05/18 08:01:37;;;;;;;16.85;12.32;;;;;;;11.52;100.00;63186.47;5045080;28;20277;-77
2023/05/18 08:04:04;;;;;;;13.57;10.57;;;;;;;11.49;100.00;63180.78;5044995;28;20205;-77
2023/05/18 08:06:32;;;;;;;11.82;10.13;;;;;;;11.53;100.00;63190.03;5046165;28;20264;-77
2023/05/18 08:08:59;;;;;;;12.43;10.70;;;;;;;11.60;100.00;63194.22;5046707;28;20209;-79
2023/05/18 08:11:26;;;;;;;15.65;11.32;;;;;;;11.71;100.00;63208.19;5045245;28;20277;-78
2023/05/18 08:13:54;;;;;;;13.55;11.50;;;;;;;11.81;100.00;63212.94;5045490;28;20210;-78
2023/05/18 08:16:21;;;;;;;13.95;11.93;;;;;;;11.85;100.00;63219.63;5045596;28;20229;-78
2023/05/18 08:18:50;;;;;;;15.10;11.60;;;;;;;11.83;100.00;63215.00;5045144;28;20239;-77
2023/05/18 08:21:17;;;;;;;13.88;11.85;;;;;;;11.88;100.00;63223.25;5045935;28;20222;-77
2023/05/18 08:23:44;;;;;;;17.45;11.50;;;;;;;11.88;100.00;63222.72;5045225;28;20491;-77
2023/05/18 08:26:12;;;;;;;16.35;11.65;;;;;;;11.99;100.00;63234.66;5044656;28;20208;-77
2023/05/18 08:28:39;;;;;;;13.07;11.65;;;;;;;12.06;100.00;63247.00;5045595;28;20205;-77
2023/05/18 08:31:08;;;;;;;12.32;10.63;;;;;;;12.05;100.00;63242.91;5045017;28;20277;-77
2023/05/18 08:33:34;;;;;;;12.63;9.95;;;;;;;12.13;100.00;63253.75;5045025;28;20205;-76
2023/05/18 08:36:03;;;;;;;14.32;10.18;;;;;;;12.20;100.00;63256.41;5044754;28;20428;-77
2023/05/18 08:38:30;;;;;;;12.07;10.55;;;;;;;12.22;100.00;63263.59;5044021;28;20550;-77
2023/05/18 08:41:08;;;;;;;14.63;11.30;;;;;;;12.29;100.00;63270.84;5044353;28;20503;-77
2023/05/18 08:43:41;;;;;;;13.70;11.10;;;;;;;12.42;100.00;63279.25;5044120;28;20369;-77
2023/05/18 08:46:20;;;;;;;15.43;12.15;;;;;;;12.27;100.00;63263.16;5044972;28;20249;-78
2023/05/18 08:48:50;;;;;;;17.55;10.20;;;;;;;12.13;100.00;63251.72;5044410;28;20530;-76
2023/05/18 08:51:20;;;;;;;10.88;9.75;;;;;;;12.18;100.00;63251.28;5044861;28;20487;-76
2023/05/18 08:53:52;;;;;;;10.60;8.85;;;;;;;12.17;100.00;63255.34;5044673;28;20201;-77
2023/05/18 08:56:23;;;;;;;13.88;9.80;;;;;;;12.27;100.00;63265.72;5044862;28;20260;-78
2023/05/18 08:58:52;;;;;;;12.00;9.98;;;;;;;12.29;100.00;63265.75;5045035;28;20252;-77
2023/05/18 09:01:21;;;;;;;12.65;10.18;;;;;;;12.29;100.00;63265.22;5044473;28;20207;-77
2023/05/18 09:03:49;;;;;;;12.30;10.65;;;;;;;12.27;100.00;63266.22;5044353;28;20265;-76
2023/05/18 09:06:18;;;;;;;18.40;11.43;;;;;;;12.28;100.00;63264.19;5045102;28;20300;-77
2023/05/18 09:08:46;;;;;;;17.50;12.05;;;;;;;12.24;100.00;63263.13;5044541;28;20208;-78
2023/05/18 09:11:14;;;;;;;15.57;10.85;;;;;;;12.11;100.00;63241.47;5044665;28;20621;-77
2023/05/18 09:13:41;;;;;;;11.98;9.90;;;;;;;12.14;100.00;63247.66;5044848;28;20190;-78
2023/05/18 09:16:08;;;;;;;13.43;10.93;;;;;;;12.27;100.00;63265.72;5044543;28;20525;-77
2023/05/18 09:18:36;;;;;;;15.30;10.35;;;;;;;12.35;100.00;63279.13;5045585;28;20233;-77
2023/05/18 09:21:03;;;;;;;13.98;11.43;;;;;;;12.29;100.00;63267.78;5044836;28;20198;-77
2023/05/18 09:23:33;;;;;;;10.77;9.77;;;;;;;12.33;100.00;63266.81;5045161;28;20213;-77
2023/05/18 09:26:03;;;;;;;9.25;8.20;;;;;;;12.32;100.00;63268.84;5044562;28;20214;-76
2023/05/18 09:28:35;;;;;;;9.20;8.35;;;;;;;12.33;100.00;63272.47;5044065;28;20203;-77
2023/05/18 09:31:03;;;;;;;10.55;7.95;;;;;;;12.20;100.00;63255.91;5044519;28;20186;-76
2023/05/18 09:33:34;;;;;;;8.65;7.85;;;;;;;12.10;100.00;63248.09;5044554;28;20190;-77
2023/05/18 09:36:01;;;;;;;10.90;9.25;;;;;;;12.05;100.00;63240.88;5044789;28;20205;-77
2023/05/18 09:38:29;;;;;;;14.68;9.27;;;;;;;12.09;100.00;63245.03;5044584;28;20233;-77
2023/05/18 09:40:59;;;;;;;9.40;6.97;;;;;;;12.11;100.00;63249.13;5045188;28;20201;-77
2023/05/18 09:43:26;;;;;;;8.45;7.10;;;;;;;12.12;100.00;63245.06;5044360;28;20297;-77
2023/05/18 09:45:53;;;;;;;10.10;7.82;;;;;;;12.29;100.00;63267.78;5046371;28;20213;-77
2023/05/18 09:48:21;;;;;;;10.85;8.23;;;;;;;12.32;100.00;63276.00;5050463;28;20245;-76
2023/05/18 09:50:50;;;;;;;15.57;9.70;;;;;;;12.33;100.00;63272.47;5052410;28;20195;-77
2023/05/18 09:53:17;;;;;;;9.65;8.77;;;;;;;12.32;100.00;63271.41;5049969;28;20293;-77
2023/05/18 09:55:50;;;;;;;12.85;8.93;;;;;;;12.27;100.00;63263.66;5050289;28;20265;-76
2023/05/18 09:58:18;;;;;;;9.93;7.82;;;;;;;12.35;100.00;63277.09;5050195;28;20286;-76
2023/05/18 10:00:52;;;;;;;10.95;7.80;;;;;;;12.36;100.00;63275.03;5050028;28;20212;-77
2023/05/18 10:03:21;;;;;;;10.57;7.82;;;;;;;12.29;100.00;63268.31;5049783;28;20229;-76
2023/05/18 10:05:49;;;;;;;10.63;7.63;;;;;;;12.33;100.00;63271.94;5047332;28;20198;-76
2023/05/18 10:08:17;;;;;;;8.38;7.55;;;;;;;12.39;100.00;63275.59;5047078;28;20402;-77
2023/05/18 10:10:45;;;;;;;13.27;7.43;;;;;;;12.44;100.00;63278.75;5047138;28;20197;-76
2023/05/18 10:13:16;;;;;;;8.90;8.10;;;;;;;12.52;100.00;63294.19;5048094;28;20221;-77
2023/05/18 10:15:49;;;;;;;8.00;7.25;;;;;;;12.52;100.00;63289.59;5047094;28;20194;-78
2023/05/18 10:18:22;;;;;;;9.23;7.22;;;;;;;12.54;100.00;63293.72;5047905;28;20218;-76
2023/05/18 10:20:51;;;;;;;7.90;7.25;;;;;;;12.62;100.00;63297.41;5047135;28;20372;-76
2023/05/18 10:23:19;;;;;;;9.65;8.25;;;;;;;12.71;100.00;63311.34;5047927;28;20224;-76
2023/05/18 10:25:49;;;;;;;8.63;7.65;;;;;;;12.52;100.00;63289.59;5051509;28;20332;-78
2023/05/18 10:28:24;;;;;;;8.82;8.02;;;;;;;12.68;100.00;63303.13;5049172;28;20209;-78
2023/05/18 10:30:54;;;;;;;8.65;7.82;;;;;;;12.82;100.00;63325.81;5047595;28;20209;-77
2023/05/18 10:33:23;;;;;;;10.68;8.15;;;;;;;12.69;100.00;63309.78;5048672;28;20218;-77
2023/05/18 10:35:51;;;;;;;12.73;7.97;;;;;;;12.88;100.00;63328.44;5048406;28;20503;-76
2023/05/18 10:38:20;;;;;;;9.07;8.13;;;;;;;12.98;100.00;63339.34;5048441;28;20217;-77
2023/05/18 10:40:50;;;;;;;12.73;9.30;;;;;;;13.11;100.00;63349.75;5048800;28;20229;-77
2023/05/18 10:43:21;;;;;;;10.57;9.50;;;;;;;13.15;100.00;63351.88;5049901;28;20277;-78
2023/05/18 10:45:54;;;;;;;11.02;7.53;;;;;;;13.24;100.00;63365.81;5047012;28;20190;-76
2023/05/18 10:48:23;;;;;;;8.80;7.13;;;;;;;13.26;100.00;63370.97;5046438;28;20486;-75
2023/05/18 10:50:52;;;;;;;9.80;8.80;;;;;;;13.30;100.00;63369.47;5046126;28;20214;-77
2023/05/18 10:53:20;;;;;;;8.15;7.20;;;;;;;12.99;100.00;63339.84;5046488;28;20275;-77
2023/05/18 10:55:49;;;;;;;10.90;7.93;;;;;;;12.90;100.00;63331.03;5047880;28;20222;-78
2023/05/18 10:58:18;;;;;;;10.95;7.40;;;;;;;12.76;100.00;63316.53;5045992;28;20245;-77
2023/05/18 11:00:50;;;;;;;7.70;6.88;;;;;;;12.50;100.00;63284.97;5047219;28;20205;-77
2023/05/18 11:03:18;;;;;;;9.63;7.30;;;;;;;12.63;100.00;63298.44;5047788;28;20222;-77
2023/05/18 11:05:52;;;;;;;8.43;7.40;;;;;;;12.50;100.00;63292.09;5048503;28;20198;-77
2023/05/18 11:08:27;;;;;;;10.68;7.43;;;;;;;12.40;100.00;63277.16;5048201;28;20226;-75
2023/05/18 11:11:01;;;;;;;8.30;7.50;;;;;;;12.29;100.00;63270.34;5047672;28;20204;-77
2023/05/18 11:13:31;;;;;;;11.65;8.65;;;;;;;12.40;100.00;63279.19;5047688;28;20550;-77
2023/05/18 11:16:07;;;;;;;9.65;8.70;;;;;;;12.55;100.00;63297.28;5047187;28;20244;-75
2023/05/18 11:18:36;;;;;;;9.82;8.45;;;;;;;12.73;100.00;63313.41;5048071;28;20204;-76
2023/05/18 11:21:19;;;;;;;9.50;8.32;;;;;;;12.76;100.00;63317.03;5047106;28;20225;-77
2023/05/18 11:24:14;;;;;;;9.38;8.32;;;;;;;12.77;100.00;63323.19;5047252;28;20206;-78
2023/05/18 11:26:42;;;;;;;7.70;7.10;;;;;;;12.73;100.00;63311.34;5048473;28;20218;-78
2023/05/18 11:29:21;;;;;;;10.80;7.20;;;;;;;12.64;100.00;63302.03;5049311;28;20196;-78